sensor_id;sensor_type;location;lat;lon;timestamp;temperature;humidity
5554;DHT22;2800;49.528;8.666;2023-03-05T00:01:53;4.00;99.90
5554;DHT22;2800;49.528;8.666;2023-03-05T00:04:18;4.00;99.90
5554;DHT22;2800;49.528;8.666;2023-03-05T00:06:44;4.00;99.90
5554;DHT22;2800;49.528;8.666;2023-03-05T00:09:09;4.00;99.90
5554;DHT22;2800;49.528;8.666;2023-03-05T00:11:35;3.90;99.90
5554;DHT22;2800;49.528;8.666;2023-03-05T00:14:02;3.90;99.90
5554;DHT22;2800;49.528;8.666;2023-03-05T00:16:28;3.90;99.90
5554;DHT22;2800;49.528;8.666;2023-03-05T00:18:55;4.00;99.90
5554;DHT22;2800;49.528;8.666;2023-03-05T00:21:22;3.90;99.90
5554;DHT22;2800;49.528;8.666;2023-03-05T00:23:49;4.00;99.90
5554;DHT22;2800;49.528;8.666;2023-03-05T00:26:19;4.00;99.90
5554;DHT22;2800;49.528;8.666;2023-03-05T00:28:45;4.00;99.90
5554;DHT22;2800;49.528;8.666;2023-03-05T00:31:21;4.10;99.90
5554;DHT22;2800;49.528;8.666;2023-03-05T00:33:54;4.00;99.90
5554;DHT22;2800;49.528;8.666;2023-03-05T00:36:21;4.10;99.90
5554;DHT22;2800;49.528;8.666;2023-03-05T00:38:47;4.00;99.90
5554;DHT22;2800;49.528;8.666;2023-03-05T00:41:12;4.00;99.90
5554;DHT22;2800;49.528;8.666;2023-03-05T00:43:38;4.00;99.90
5554;DHT22;2800;49.528;8.666;2023-03-05T00:46:03;4.00;99.90
5554;DHT22;2800;49.528;8.666;2023-03-05T00:48:29;3.90;99.90
5554;DHT22;2800;49.528;8.666;2023-03-05T00:50:54;3.90;99.90
5554;DHT22;2800;49.528;8.666;2023-03-05T00:53:20;3.90;99.90
5554;DHT22;2800;49.528;8.666;2023-03-05T00:55:46;3.90;99.90
5554;DHT22;2800;49.528;8.666;2023-03-05T00:58:12;3.90;99.90
5554;DHT22;2800;49.528;8.666;2023-03-05T01:00:37;3.90;99.90
5554;DHT22;2800;49.528;8.666;2023-03-05T01:03:03;3.90;99.90
5554;DHT22;2800;49.528;8.666;2023-03-05T01:05:28;3.90;99.90
5554;DHT22;2800;49.528;8.666;2023-03-05T01:07:55;3.80;99.90
5554;DHT22;2800;49.528;8.666;2023-03-05T01:10:22;3.90;99.90
5554;DHT22;2800;49.528;8.666;2023-03-05T01:12:48;3.80;99.90
5554;DHT22;2800;49.528;8.666;2023-03-05T01:15:14;3.80;99.90
5554;DHT22;2800;49.528;8.666;2023-03-05T01:17:40;3.80;99.90
5554;DHT22;2800;49.528;8.666;2023-03-05T01:20:06;3.80;99.90
5554;DHT22;2800;49.528;8.666;2023-03-05T01:22:32;3.70;99.90
5554;DHT22;2800;49.528;8.666;2023-03-05T01:24:57;3.70;99.90
5554;DHT22;2800;49.528;8.666;2023-03-05T01:27:23;3.70;99.90
5554;DHT22;2800;49.528;8.666;2023-03-05T01:29:48;3.30;99.90
5554;DHT22;2800;49.528;8.666;2023-03-05T01:32:14;3.60;99.90
5554;DHT22;2800;49.528;8.666;2023-03-05T01:34:39;3.60;99.90
5554;DHT22;2800;49.528;8.666;2023-03-05T01:37:06;3.60;99.90
5554;DHT22;2800;49.528;8.666;2023-03-05T01:39:32;3.60;99.90
5554;DHT22;2800;49.528;8.666;2023-03-05T01:41:57;3.60;99.90
5554;DHT22;2800;49.528;8.666;2023-03-05T01:44:25;3.60;99.90
5554;DHT22;2800;49.528;8.666;2023-03-05T01:46:51;3.60;99.90
5554;DHT22;2800;49.528;8.666;2023-03-05T01:49:37;3.60;99.90
5554;DHT22;2800;49.528;8.666;2023-03-05T01:52:08;3.70;99.90
5554;DHT22;2800;49.528;8.666;2023-03-05T01:54:39;3.70;99.90
5554;DHT22;2800;49.528;8.666;2023-03-05T01:57:11;3.60;99.90
5554;DHT22;2800;49.528;8.666;2023-03-05T01:59:39;3.50;99.90
5554;DHT22;2800;49.528;8.666;2023-03-05T02:02:06;3.40;99.90
5554;DHT22;2800;49.528;8.666;2023-03-05T02:04:41;3.40;99.90
5554;DHT22;2800;49.528;8.666;2023-03-05T02:07:07;3.40;99.90
5554;DHT22;2800;49.528;8.666;2023-03-05T02:09:37;3.40;99.90
5554;DHT22;2800;49.528;8.666;2023-03-05T02:12:03;3.40;99.90
5554;DHT22;2800;49.528;8.666;2023-03-05T02:14:28;3.40;99.90
5554;DHT22;2800;49.528;8.666;2023-03-05T02:16:54;3.40;99.90
5554;DHT22;2800;49.528;8.666;2023-03-05T02:19:19;3.40;99.90
5554;DHT22;2800;49.528;8.666;2023-03-05T02:21:46;3.40;99.90
5554;DHT22;2800;49.528;8.666;2023-03-05T02:24:14;3.40;99.90
5554;DHT22;2800;49.528;8.666;2023-03-05T02:26:41;3.40;99.90
5554;DHT22;2800;49.528;8.666;2023-03-05T02:29:11;3.40;99.90
5554;DHT22;2800;49.528;8.666;2023-03-05T02:31:38;3.30;99.90
5554;DHT22;2800;49.528;8.666;2023-03-05T02:34:04;3.30;99.90
5554;DHT22;2800;49.528;8.666;2023-03-05T02:36:31;3.40;99.90
5554;DHT22;2800;49.528;8.666;2023-03-05T02:38:56;3.40;99.90
5554;DHT22;2800;49.528;8.666;2023-03-05T02:41:23;3.40;99.90
5554;DHT22;2800;49.528;8.666;2023-03-05T02:43:49;3.40;99.90
5554;DHT22;2800;49.528;8.666;2023-03-05T02:46:15;3.40;99.90
5554;DHT22;2800;49.528;8.666;2023-03-05T02:48:40;3.40;99.90
5554;DHT22;2800;49.528;8.666;2023-03-05T02:51:07;3.40;99.90
5554;DHT22;2800;49.528;8.666;2023-03-05T02:53:33;3.40;99.90
5554;DHT22;2800;49.528;8.666;2023-03-05T02:55:58;3.30;99.90
5554;DHT22;2800;49.528;8.666;2023-03-05T02:58:24;3.30;99.90
5554;DHT22;2800;49.528;8.666;2023-03-05T03:00:50;3.30;99.90
5554;DHT22;2800;49.528;8.666;2023-03-05T03:03:15;3.30;99.90
5554;DHT22;2800;49.528;8.666;2023-03-05T03:05:41;3.20;99.90
5554;DHT22;2800;49.528;8.666;2023-03-05T03:08:06;3.20;99.90
5554;DHT22;2800;49.528;8.666;2023-03-05T03:10:32;3.20;99.90
5554;DHT22;2800;49.528;8.666;2023-03-05T03:12:58;3.20;99.90
5554;DHT22;2800;49.528;8.666;2023-03-05T03:15:24;3.20;99.90
5554;DHT22;2800;49.528;8.666;2023-03-05T03:17:49;3.20;99.90
5554;DHT22;2800;49.528;8.666;2023-03-05T03:20:16;3.30;99.90
5554;DHT22;2800;49.528;8.666;2023-03-05T03:22:43;3.30;99.90
5554;DHT22;2800;49.528;8.666;2023-03-05T03:25:13;3.30;99.90
5554;DHT22;2800;49.528;8.666;2023-03-05T03:27:39;3.30;99.90
5554;DHT22;2800;49.528;8.666;2023-03-05T03:30:05;3.30;99.90
5554;DHT22;2800;49.528;8.666;2023-03-05T03:32:32;3.30;99.90
5554;DHT22;2800;49.528;8.666;2023-03-05T03:34:57;3.30;99.90
5554;DHT22;2800;49.528;8.666;2023-03-05T03:37:23;3.30;99.90
5554;DHT22;2800;49.528;8.666;2023-03-05T03:39:49;2.90;99.90
5554;DHT22;2800;49.528;8.666;2023-03-05T03:42:22;3.20;99.90
5554;DHT22;2800;49.528;8.666;2023-03-05T03:44:48;3.20;99.90
5554;DHT22;2800;49.528;8.666;2023-03-05T03:47:14;3.20;99.90
5554;DHT22;2800;49.528;8.666;2023-03-05T03:49:39;3.20;99.90
5554;DHT22;2800;49.528;8.666;2023-03-05T03:52:05;3.10;99.90
5554;DHT22;2800;49.528;8.666;2023-03-05T03:54:31;3.20;99.90
5554;DHT22;2800;49.528;8.666;2023-03-05T03:56:57;3.10;99.90
5554;DHT22;2800;49.528;8.666;2023-03-05T03:59:22;3.20;99.90
5554;DHT22;2800;49.528;8.666;2023-03-05T04:01:48;3.20;99.90
5554;DHT22;2800;49.528;8.666;2023-03-05T04:04:14;3.20;99.90
5554;DHT22;2800;49.528;8.666;2023-03-05T04:06:40;3.20;99.90
5554;DHT22;2800;49.528;8.666;2023-03-05T04:09:05;3.10;99.90
5554;DHT22;2800;49.528;8.666;2023-03-05T04:11:33;3.10;99.90
5554;DHT22;2800;49.528;8.666;2023-03-05T04:13:58;3.10;99.90
5554;DHT22;2800;49.528;8.666;2023-03-05T04:16:24;3.00;99.90
5554;DHT22;2800;49.528;8.666;2023-03-05T04:18:49;3.10;99.90
5554;DHT22;2800;49.528;8.666;2023-03-05T04:21:15;3.00;99.90
5554;DHT22;2800;49.528;8.666;2023-03-05T04:23:41;3.00;99.90
5554;DHT22;2800;49.528;8.666;2023-03-05T04:26:06;3.00;99.90
5554;DHT22;2800;49.528;8.666;2023-03-05T04:28:32;3.10;99.90
5554;DHT22;2800;49.528;8.666;2023-03-05T04:30:58;3.10;99.90
5554;DHT22;2800;49.528;8.666;2023-03-05T04:33:24;3.10;99.90
5554;DHT22;2800;49.528;8.666;2023-03-05T04:35:50;3.10;99.90
5554;DHT22;2800;49.528;8.666;2023-03-05T04:38:15;3.10;99.90
5554;DHT22;2800;49.528;8.666;2023-03-05T04:40:41;3.10;99.90
5554;DHT22;2800;49.528;8.666;2023-03-05T04:43:07;3.00;99.90
5554;DHT22;2800;49.528;8.666;2023-03-05T04:45:32;3.00;99.90
5554;DHT22;2800;49.528;8.666;2023-03-05T04:47:58;2.80;99.90
5554;DHT22;2800;49.528;8.666;2023-03-05T04:50:24;3.00;99.90
5554;DHT22;2800;49.528;8.666;2023-03-05T04:52:50;3.00;99.90
5554;DHT22;2800;49.528;8.666;2023-03-05T04:55:16;3.10;99.90
5554;DHT22;2800;49.528;8.666;2023-03-05T04:57:42;3.10;99.90
5554;DHT22;2800;49.528;8.666;2023-03-05T05:00:11;3.20;99.90
5554;DHT22;2800;49.528;8.666;2023-03-05T05:02:39;3.20;99.90
5554;DHT22;2800;49.528;8.666;2023-03-05T05:05:07;3.10;99.90
5554;DHT22;2800;49.528;8.666;2023-03-05T05:07:33;3.10;99.90
5554;DHT22;2800;49.528;8.666;2023-03-05T05:09:58;3.10;99.90
5554;DHT22;2800;49.528;8.666;2023-03-05T05:12:28;3.10;99.90
5554;DHT22;2800;49.528;8.666;2023-03-05T05:14:55;3.10;99.90
5554;DHT22;2800;49.528;8.666;2023-03-05T05:17:20;3.10;99.90
5554;DHT22;2800;49.528;8.666;2023-03-05T05:19:46;3.00;99.90
5554;DHT22;2800;49.528;8.666;2023-03-05T05:22:11;3.00;99.90
5554;DHT22;2800;49.528;8.666;2023-03-05T05:24:37;3.00;99.90
5554;DHT22;2800;49.528;8.666;2023-03-05T05:27:03;3.00;99.90
5554;DHT22;2800;49.528;8.666;2023-03-05T05:29:28;3.00;99.90
5554;DHT22;2800;49.528;8.666;2023-03-05T05:31:54;3.10;99.90
5554;DHT22;2800;49.528;8.666;2023-03-05T05:34:20;3.10;99.90
5554;DHT22;2800;49.528;8.666;2023-03-05T05:36:46;3.10;99.90
5554;DHT22;2800;49.528;8.666;2023-03-05T05:39:11;3.00;99.90
5554;DHT22;2800;49.528;8.666;2023-03-05T05:41:37;3.00;99.90
5554;DHT22;2800;49.528;8.666;2023-03-05T05:44:03;3.10;99.90
5554;DHT22;2800;49.528;8.666;2023-03-05T05:46:28;3.10;99.90
5554;DHT22;2800;49.528;8.666;2023-03-05T05:48:54;3.10;99.90
5554;DHT22;2800;49.528;8.666;2023-03-05T05:51:21;3.10;99.90
5554;DHT22;2800;49.528;8.666;2023-03-05T05:53:47;3.20;99.90
5554;DHT22;2800;49.528;8.666;2023-03-05T05:56:14;3.20;99.90
5554;DHT22;2800;49.528;8.666;2023-03-05T05:58:45;3.20;99.90
5554;DHT22;2800;49.528;8.666;2023-03-05T06:01:21;3.20;99.90
5554;DHT22;2800;49.528;8.666;2023-03-05T06:03:47;3.20;99.90
5554;DHT22;2800;49.528;8.666;2023-03-05T06:06:15;3.10;99.90
5554;DHT22;2800;49.528;8.666;2023-03-05T06:08:41;3.10;99.90
5554;DHT22;2800;49.528;8.666;2023-03-05T06:11:08;3.20;99.90
5554;DHT22;2800;49.528;8.666;2023-03-05T06:13:33;3.20;99.90
5554;DHT22;2800;49.528;8.666;2023-03-05T06:16:02;3.20;99.90
5554;DHT22;2800;49.528;8.666;2023-03-05T06:18:28;3.20;99.90
5554;DHT22;2800;49.528;8.666;2023-03-05T06:20:59;3.20;99.90
5554;DHT22;2800;49.528;8.666;2023-03-05T06:23:26;3.20;99.90
5554;DHT22;2800;49.528;8.666;2023-03-05T06:25:53;3.30;99.90
5554;DHT22;2800;49.528;8.666;2023-03-05T06:28:19;3.30;99.90
5554;DHT22;2800;49.528;8.666;2023-03-05T06:30:44;3.30;99.90
5554;DHT22;2800;49.528;8.666;2023-03-05T06:33:10;3.30;99.90
5554;DHT22;2800;49.528;8.666;2023-03-05T06:35:37;3.40;99.90
5554;DHT22;2800;49.528;8.666;2023-03-05T06:38:04;3.30;99.90
5554;DHT22;2800;49.528;8.666;2023-03-05T06:40:29;3.30;99.90
5554;DHT22;2800;49.528;8.666;2023-03-05T06:42:55;3.30;99.90
5554;DHT22;2800;49.528;8.666;2023-03-05T06:45:21;3.30;99.90
5554;DHT22;2800;49.528;8.666;2023-03-05T06:47:46;3.30;99.90
5554;DHT22;2800;49.528;8.666;2023-03-05T06:50:12;3.30;99.90
5554;DHT22;2800;49.528;8.666;2023-03-05T06:52:38;3.40;99.90
5554;DHT22;2800;49.528;8.666;2023-03-05T06:55:06;3.40;99.90
5554;DHT22;2800;49.528;8.666;2023-03-05T06:57:31;3.40;99.90
5554;DHT22;2800;49.528;8.666;2023-03-05T06:59:57;3.40;99.90
5554;DHT22;2800;49.528;8.666;2023-03-05T07:02:23;3.50;99.90
5554;DHT22;2800;49.528;8.666;2023-03-05T07:04:48;3.50;99.90
5554;DHT22;2800;49.528;8.666;2023-03-05T07:07:14;3.50;99.90
5554;DHT22;2800;49.528;8.666;2023-03-05T07:09:39;3.50;99.90
5554;DHT22;2800;49.528;8.666;2023-03-05T07:12:11;3.40;99.90
5554;DHT22;2800;49.528;8.666;2023-03-05T07:14:37;3.40;99.90
5554;DHT22;2800;49.528;8.666;2023-03-05T07:17:05;3.50;99.90
5554;DHT22;2800;49.528;8.666;2023-03-05T07:19:30;3.50;99.90
5554;DHT22;2800;49.528;8.666;2023-03-05T07:21:56;3.50;99.90
5554;DHT22;2800;49.528;8.666;2023-03-05T07:24:21;3.50;99.90
5554;DHT22;2800;49.528;8.666;2023-03-05T07:26:49;3.50;99.90
5554;DHT22;2800;49.528;8.666;2023-03-05T07:29:14;3.50;99.90
5554;DHT22;2800;49.528;8.666;2023-03-05T07:31:40;3.50;99.90
5554;DHT22;2800;49.528;8.666;2023-03-05T07:34:05;3.50;99.90
5554;DHT22;2800;49.528;8.666;2023-03-05T07:36:31;3.60;99.90
5554;DHT22;2800;49.528;8.666;2023-03-05T07:38:59;3.60;99.90
5554;DHT22;2800;49.528;8.666;2023-03-05T07:41:25;3.70;99.90
5554;DHT22;2800;49.528;8.666;2023-03-05T07:43:51;3.80;99.90
5554;DHT22;2800;49.528;8.666;2023-03-05T07:46:19;3.80;99.90
5554;DHT22;2800;49.528;8.666;2023-03-05T07:48:45;3.90;99.90
5554;DHT22;2800;49.528;8.666;2023-03-05T07:51:16;3.80;99.90
5554;DHT22;2800;49.528;8.666;2023-03-05T07:53:43;3.80;99.90
5554;DHT22;2800;49.528;8.666;2023-03-05T07:56:10;3.90;99.90
5554;DHT22;2800;49.528;8.666;2023-03-05T07:58:35;3.90;99.90
5554;DHT22;2800;49.528;8.666;2023-03-05T08:01:01;4.00;99.90
5554;DHT22;2800;49.528;8.666;2023-03-05T08:03:27;4.00;99.90
5554;DHT22;2800;49.528;8.666;2023-03-05T08:05:52;4.00;99.90
5554;DHT22;2800;49.528;8.666;2023-03-05T08:08:18;4.10;99.90
5554;DHT22;2800;49.528;8.666;2023-03-05T08:10:43;4.10;99.90
5554;DHT22;2800;49.528;8.666;2023-03-05T08:13:09;4.20;99.90
5554;DHT22;2800;49.528;8.666;2023-03-05T08:15:36;4.00;99.90
5554;DHT22;2800;49.528;8.666;2023-03-05T08:18:01;4.00;99.90
5554;DHT22;2800;49.528;8.666;2023-03-05T08:20:27;3.90;99.90
5554;DHT22;2800;49.528;8.666;2023-03-05T08:22:53;4.10;99.90
5554;DHT22;2800;49.528;8.666;2023-03-05T08:25:18;4.10;99.90
5554;DHT22;2800;49.528;8.666;2023-03-05T08:27:46;4.10;99.90
5554;DHT22;2800;49.528;8.666;2023-03-05T08:30:14;4.10;99.90
5554;DHT22;2800;49.528;8.666;2023-03-05T08:32:40;4.20;99.90
5554;DHT22;2800;49.528;8.666;2023-03-05T08:35:07;4.30;99.90
5554;DHT22;2800;49.528;8.666;2023-03-05T08:37:33;4.50;99.90
5554;DHT22;2800;49.528;8.666;2023-03-05T08:39:59;4.60;99.90
5554;DHT22;2800;49.528;8.666;2023-03-05T08:42:25;4.70;99.90
5554;DHT22;2800;49.528;8.666;2023-03-05T08:44:50;4.80;99.90
5554;DHT22;2800;49.528;8.666;2023-03-05T08:47:16;4.90;99.90
5554;DHT22;2800;49.528;8.666;2023-03-05T08:49:43;4.90;99.90
5554;DHT22;2800;49.528;8.666;2023-03-05T08:52:08;5.00;99.90
5554;DHT22;2800;49.528;8.666;2023-03-05T08:54:35;5.10;99.90
5554;DHT22;2800;49.528;8.666;2023-03-05T08:57:01;5.20;99.90
5554;DHT22;2800;49.528;8.666;2023-03-05T08:59:27;5.20;99.90
5554;DHT22;2800;49.528;8.666;2023-03-05T09:01:53;5.30;99.90
5554;DHT22;2800;49.528;8.666;2023-03-05T09:04:18;5.40;99.90
5554;DHT22;2800;49.528;8.666;2023-03-05T09:06:44;5.50;99.90
5554;DHT22;2800;49.528;8.666;2023-03-05T09:09:09;5.60;99.90
5554;DHT22;2800;49.528;8.666;2023-03-05T09:11:35;5.60;99.90
5554;DHT22;2800;49.528;8.666;2023-03-05T09:14:02;5.60;99.90
5554;DHT22;2800;49.528;8.666;2023-03-05T09:16:28;5.60;99.90
5554;DHT22;2800;49.528;8.666;2023-03-05T09:18:53;5.70;99.90
5554;DHT22;2800;49.528;8.666;2023-03-05T09:21:19;5.80;99.90
5554;DHT22;2800;49.528;8.666;2023-03-05T09:23:45;5.70;99.90
5554;DHT22;2800;49.528;8.666;2023-03-05T09:26:12;5.80;99.90
5554;DHT22;2800;49.528;8.666;2023-03-05T09:28:40;5.90;99.90
5554;DHT22;2800;49.528;8.666;2023-03-05T09:31:07;6.00;99.90
5554;DHT22;2800;49.528;8.666;2023-03-05T09:33:35;6.10;99.90
5554;DHT22;2800;49.528;8.666;2023-03-05T09:36:01;6.00;99.90
5554;DHT22;2800;49.528;8.666;2023-03-05T09:38:28;6.20;99.90
5554;DHT22;2800;49.528;8.666;2023-03-05T09:44:01;6.10;99.90
5554;DHT22;2800;49.528;8.666;2023-03-05T09:46:50;6.00;99.90
5554;DHT22;2800;49.528;8.666;2023-03-05T09:52:21;5.90;99.90
5554;DHT22;2800;49.528;8.666;2023-03-05T09:54:53;5.90;99.90
5554;DHT22;2800;49.528;8.666;2023-03-05T09:57:23;6.00;99.90
5554;DHT22;2800;49.528;8.666;2023-03-05T10:00:00;6.00;99.90
5554;DHT22;2800;49.528;8.666;2023-03-05T10:02:34;6.10;99.90
5554;DHT22;2800;49.528;8.666;2023-03-05T10:07:50;6.10;99.90
5554;DHT22;2800;49.528;8.666;2023-03-05T10:10:22;6.00;99.90
5554;DHT22;2800;49.528;8.666;2023-03-05T10:12:52;6.10;99.90
5554;DHT22;2800;49.528;8.666;2023-03-05T10:17:57;6.20;99.90
5554;DHT22;2800;49.528;8.666;2023-03-05T10:23:27;6.60;99.90
5554;DHT22;2800;49.528;8.666;2023-03-05T10:26:11;6.50;99.90
5554;DHT22;2800;49.528;8.666;2023-03-05T10:42:36;6.30;99.90
5554;DHT22;2800;49.528;8.666;2023-03-05T10:50:20;6.40;99.90
5554;DHT22;2800;49.528;8.666;2023-03-05T10:55:32;6.30;99.90
5554;DHT22;2800;49.528;8.666;2023-03-05T10:57:57;6.30;99.90
5554;DHT22;2800;49.528;8.666;2023-03-05T11:00:26;6.20;99.90
5554;DHT22;2800;49.528;8.666;2023-03-05T11:02:55;6.40;99.90
5554;DHT22;2800;49.528;8.666;2023-03-05T11:05:41;6.40;99.90
5554;DHT22;2800;49.528;8.666;2023-03-05T11:08:34;6.50;99.90
5554;DHT22;2800;49.528;8.666;2023-03-05T11:11:09;6.60;99.90
5554;DHT22;2800;49.528;8.666;2023-03-05T11:13:40;6.60;99.90
5554;DHT22;2800;49.528;8.666;2023-03-05T11:16:19;6.60;99.90
5554;DHT22;2800;49.528;8.666;2023-03-05T11:18:44;6.60;99.90
5554;DHT22;2800;49.528;8.666;2023-03-05T11:21:21;6.50;99.90
5554;DHT22;2800;49.528;8.666;2023-03-05T11:24:09;6.40;99.90
5554;DHT22;2800;49.528;8.666;2023-03-05T11:26:34;6.40;99.90
5554;DHT22;2800;49.528;8.666;2023-03-05T11:29:02;6.50;99.90
5554;DHT22;2800;49.528;8.666;2023-03-05T11:31:31;6.40;99.90
5554;DHT22;2800;49.528;8.666;2023-03-05T11:34:22;6.40;99.90
5554;DHT22;2800;49.528;8.666;2023-03-05T11:39:23;6.30;99.90
5554;DHT22;2800;49.528;8.666;2023-03-05T11:41:55;6.40;99.90
5554;DHT22;2800;49.528;8.666;2023-03-05T11:44:38;6.30;99.90
5554;DHT22;2800;49.528;8.666;2023-03-05T11:47:35;6.30;99.90
5554;DHT22;2800;49.528;8.666;2023-03-05T11:50:20;6.40;99.90
5554;DHT22;2800;49.528;8.666;2023-03-05T11:55:47;6.30;99.90
5554;DHT22;2800;49.528;8.666;2023-03-05T11:58:39;6.40;99.90
5554;DHT22;2800;49.528;8.666;2023-03-05T12:01:18;6.50;99.90
5554;DHT22;2800;49.528;8.666;2023-03-05T12:03:45;6.40;99.90
5554;DHT22;2800;49.528;8.666;2023-03-05T12:06:33;6.20;99.90
5554;DHT22;2800;49.528;8.666;2023-03-05T12:09:04;6.30;99.90
5554;DHT22;2800;49.528;8.666;2023-03-05T12:11:32;6.40;99.90
5554;DHT22;2800;49.528;8.666;2023-03-05T12:16:43;6.40;99.90
5554;DHT22;2800;49.528;8.666;2023-03-05T12:19:31;6.30;99.90
5554;DHT22;2800;49.528;8.666;2023-03-05T12:22:00;6.00;99.90
5554;DHT22;2800;49.528;8.666;2023-03-05T12:29:39;5.80;99.90
5554;DHT22;2800;49.528;8.666;2023-03-05T12:35:00;6.00;99.90
5554;DHT22;2800;49.528;8.666;2023-03-05T12:55:26;5.90;99.90
5554;DHT22;2800;49.528;8.666;2023-03-05T12:58:20;6.00;99.90
5554;DHT22;2800;49.528;8.666;2023-03-05T13:03:36;5.90;99.90
5554;DHT22;2800;49.528;8.666;2023-03-05T13:06:03;6.00;99.90
5554;DHT22;2800;49.528;8.666;2023-03-05T13:08:32;6.00;99.90
5554;DHT22;2800;49.528;8.666;2023-03-05T13:11:07;6.00;99.90
5554;DHT22;2800;49.528;8.666;2023-03-05T13:13:40;6.00;99.90
5554;DHT22;2800;49.528;8.666;2023-03-05T13:16:25;6.00;99.90
5554;DHT22;2800;49.528;8.666;2023-03-05T13:18:55;6.10;99.90
5554;DHT22;2800;49.528;8.666;2023-03-05T13:21:26;6.00;99.90
5554;DHT22;2800;49.528;8.666;2023-03-05T13:23:55;6.00;99.90
5554;DHT22;2800;49.528;8.666;2023-03-05T13:26:25;6.00;99.90
5554;DHT22;2800;49.528;8.666;2023-03-05T13:31:47;6.00;99.90
5554;DHT22;2800;49.528;8.666;2023-03-05T13:34:19;6.00;99.90
5554;DHT22;2800;49.528;8.666;2023-03-05T13:37:13;6.00;99.90
5554;DHT22;2800;49.528;8.666;2023-03-05T13:39:49;6.00;99.90
5554;DHT22;2800;49.528;8.666;2023-03-05T13:42:17;5.90;99.90
5554;DHT22;2800;49.528;8.666;2023-03-05T13:44:53;5.90;99.90
5554;DHT22;2800;49.528;8.666;2023-03-05T13:47:20;5.90;99.90
5554;DHT22;2800;49.528;8.666;2023-03-05T13:49:54;5.90;99.90
5554;DHT22;2800;49.528;8.666;2023-03-05T13:52:29;5.80;99.90
5554;DHT22;2800;49.528;8.666;2023-03-05T13:54:59;5.80;99.90
5554;DHT22;2800;49.528;8.666;2023-03-05T13:57:40;5.90;99.90
5554;DHT22;2800;49.528;8.666;2023-03-05T14:00:28;5.90;99.90
5554;DHT22;2800;49.528;8.666;2023-03-05T14:02:57;5.80;99.90
5554;DHT22;2800;49.528;8.666;2023-03-05T14:05:24;5.90;99.90
5554;DHT22;2800;49.528;8.666;2023-03-05T14:07:51;5.90;99.90
5554;DHT22;2800;49.528;8.666;2023-03-05T14:10:33;5.90;99.90
5554;DHT22;2800;49.528;8.666;2023-03-05T14:13:02;5.90;99.90
5554;DHT22;2800;49.528;8.666;2023-03-05T14:15:31;5.80;99.90
5554;DHT22;2800;49.528;8.666;2023-03-05T14:18:12;5.80;99.90
5554;DHT22;2800;49.528;8.666;2023-03-05T14:21:07;5.80;99.90
5554;DHT22;2800;49.528;8.666;2023-03-05T14:23:43;5.90;99.90
5554;DHT22;2800;49.528;8.666;2023-03-05T14:26:20;5.90;99.90
5554;DHT22;2800;49.528;8.666;2023-03-05T14:28:55;5.90;99.90
5554;DHT22;2800;49.528;8.666;2023-03-05T14:31:22;5.90;99.90
5554;DHT22;2800;49.528;8.666;2023-03-05T14:33:48;5.90;99.90
5554;DHT22;2800;49.528;8.666;2023-03-05T14:36:23;5.90;99.90
5554;DHT22;2800;49.528;8.666;2023-03-05T14:38:51;5.90;99.90
5554;DHT22;2800;49.528;8.666;2023-03-05T14:41:30;5.80;99.90
5554;DHT22;2800;49.528;8.666;2023-03-05T14:43:56;5.80;99.90
5554;DHT22;2800;49.528;8.666;2023-03-05T14:46:23;5.60;99.90
5554;DHT22;2800;49.528;8.666;2023-03-05T14:48:48;5.60;99.90
5554;DHT22;2800;49.528;8.666;2023-03-05T14:51:14;5.60;99.90
5554;DHT22;2800;49.528;8.666;2023-03-05T14:53:44;5.50;99.90
5554;DHT22;2800;49.528;8.666;2023-03-05T14:56:21;5.50;99.90
5554;DHT22;2800;49.528;8.666;2023-03-05T14:58:47;5.60;99.90
5554;DHT22;2800;49.528;8.666;2023-03-05T15:01:13;5.50;99.90
5554;DHT22;2800;49.528;8.666;2023-03-05T15:03:38;5.50;99.90
5554;DHT22;2800;49.528;8.666;2023-03-05T15:06:08;5.50;99.90
5554;DHT22;2800;49.528;8.666;2023-03-05T15:08:38;5.50;99.90
5554;DHT22;2800;49.528;8.666;2023-03-05T15:11:03;5.40;99.90
5554;DHT22;2800;49.528;8.666;2023-03-05T15:13:31;5.40;99.90
5554;DHT22;2800;49.528;8.666;2023-03-05T15:15:57;5.50;99.90
5554;DHT22;2800;49.528;8.666;2023-03-05T15:18:23;5.40;99.90
5554;DHT22;2800;49.528;8.666;2023-03-05T15:20:48;5.40;99.90
5554;DHT22;2800;49.528;8.666;2023-03-05T15:23:17;5.40;99.90
5554;DHT22;2800;49.528;8.666;2023-03-05T15:25:43;5.50;99.90
5554;DHT22;2800;49.528;8.666;2023-03-05T15:28:08;5.50;99.90
5554;DHT22;2800;49.528;8.666;2023-03-05T15:30:37;5.50;99.90
5554;DHT22;2800;49.528;8.666;2023-03-05T15:33:05;5.60;99.90
5554;DHT22;2800;49.528;8.666;2023-03-05T15:35:31;5.70;99.90
5554;DHT22;2800;49.528;8.666;2023-03-05T15:37:57;5.70;99.90
5554;DHT22;2800;49.528;8.666;2023-03-05T15:40:23;5.80;99.90
5554;DHT22;2800;49.528;8.666;2023-03-05T15:42:49;5.70;99.90
5554;DHT22;2800;49.528;8.666;2023-03-05T15:45:15;5.60;99.90
5554;DHT22;2800;49.528;8.666;2023-03-05T15:47:40;5.60;99.90
5554;DHT22;2800;49.528;8.666;2023-03-05T15:50:07;5.50;99.90
5554;DHT22;2800;49.528;8.666;2023-03-05T15:52:33;5.40;99.90
5554;DHT22;2800;49.528;8.666;2023-03-05T15:54:59;5.50;99.90
5554;DHT22;2800;49.528;8.666;2023-03-05T15:57:25;5.50;99.90
5554;DHT22;2800;49.528;8.666;2023-03-05T15:59:51;5.50;99.90
5554;DHT22;2800;49.528;8.666;2023-03-05T16:02:17;5.40;99.90
5554;DHT22;2800;49.528;8.666;2023-03-05T16:04:43;5.40;99.90
5554;DHT22;2800;49.528;8.666;2023-03-05T16:07:09;5.40;99.90
5554;DHT22;2800;49.528;8.666;2023-03-05T16:09:38;5.40;99.90
5554;DHT22;2800;49.528;8.666;2023-03-05T16:12:08;5.40;99.90
5554;DHT22;2800;49.528;8.666;2023-03-05T16:14:37;5.40;99.90
5554;DHT22;2800;49.528;8.666;2023-03-05T16:17:03;5.40;99.90
5554;DHT22;2800;49.528;8.666;2023-03-05T16:19:30;5.20;99.90
5554;DHT22;2800;49.528;8.666;2023-03-05T16:21:56;5.20;99.90
5554;DHT22;2800;49.528;8.666;2023-03-05T16:24:22;5.20;99.90
5554;DHT22;2800;49.528;8.666;2023-03-05T16:26:47;5.20;99.90
5554;DHT22;2800;49.528;8.666;2023-03-05T16:29:13;5.20;99.90
5554;DHT22;2800;49.528;8.666;2023-03-05T16:31:38;5.10;99.90
5554;DHT22;2800;49.528;8.666;2023-03-05T16:34:07;5.00;99.90
5554;DHT22;2800;49.528;8.666;2023-03-05T16:36:32;5.00;99.90
5554;DHT22;2800;49.528;8.666;2023-03-05T16:39:01;5.00;99.90
5554;DHT22;2800;49.528;8.666;2023-03-05T16:41:26;5.00;99.90
5554;DHT22;2800;49.528;8.666;2023-03-05T16:43:54;5.00;99.90
5554;DHT22;2800;49.528;8.666;2023-03-05T16:46:22;4.90;99.90
5554;DHT22;2800;49.528;8.666;2023-03-05T16:48:48;4.80;99.90
5554;DHT22;2800;49.528;8.666;2023-03-05T16:51:13;4.80;99.90
5554;DHT22;2800;49.528;8.666;2023-03-05T16:53:40;4.80;99.90
5554;DHT22;2800;49.528;8.666;2023-03-05T16:56:07;4.80;99.90
5554;DHT22;2800;49.528;8.666;2023-03-05T16:58:33;4.80;99.90
5554;DHT22;2800;49.528;8.666;2023-03-05T17:01:00;4.70;99.90
5554;DHT22;2800;49.528;8.666;2023-03-05T17:03:26;4.70;99.90
5554;DHT22;2800;49.528;8.666;2023-03-05T17:05:52;4.60;99.90
5554;DHT22;2800;49.528;8.666;2023-03-05T17:08:18;4.70;99.90
5554;DHT22;2800;49.528;8.666;2023-03-05T17:10:44;4.60;99.90
5554;DHT22;2800;49.528;8.666;2023-03-05T17:13:10;4.70;99.90
5554;DHT22;2800;49.528;8.666;2023-03-05T17:15:35;4.60;99.90
5554;DHT22;2800;49.528;8.666;2023-03-05T17:18:01;4.60;99.90
5554;DHT22;2800;49.528;8.666;2023-03-05T17:20:27;4.70;99.90
5554;DHT22;2800;49.528;8.666;2023-03-05T17:22:52;4.60;99.90
5554;DHT22;2800;49.528;8.666;2023-03-05T17:25:19;4.60;99.90
5554;DHT22;2800;49.528;8.666;2023-03-05T17:27:45;4.60;99.90
5554;DHT22;2800;49.528;8.666;2023-03-05T17:30:12;4.60;99.90
5554;DHT22;2800;49.528;8.666;2023-03-05T17:32:38;4.60;99.90
5554;DHT22;2800;49.528;8.666;2023-03-05T17:35:06;4.60;99.90
5554;DHT22;2800;49.528;8.666;2023-03-05T17:37:31;4.50;99.90
5554;DHT22;2800;49.528;8.666;2023-03-05T17:39:57;4.50;99.90